sensor_id;sensor_type;location;lat;lon;timestamp;P1;durP1;ratioP1;P2;durP2;ratioP2
49396;SDS011;35615;41.410;2.194;2023-04-24T00:02:19;10.43;;;2.67;;
49396;SDS011;35615;41.410;2.194;2023-04-24T00:04:47;12.75;;;2.90;;
49396;SDS011;35615;41.410;2.194;2023-04-24T00:07:15;9.30;;;2.78;;
49396;SDS011;35615;41.410;2.194;2023-04-24T00:09:43;5.57;;;2.75;;
49396;SDS011;35615;41.410;2.194;2023-04-24T00:12:11;10.18;;;3.15;;
49396;SDS011;35615;41.410;2.194;2023-04-24T00:14:38;17.27;;;3.25;;
49396;SDS011;35615;41.410;2.194;2023-04-24T00:17:05;11.50;;;3.40;;
49396;SDS011;35615;41.410;2.194;2023-04-24T00:19:33;12.88;;;3.58;;
49396;SDS011;35615;41.410;2.194;2023-04-24T00:22:00;13.80;;;2.90;;
49396;SDS011;35615;41.410;2.194;2023-04-24T00:24:27;13.00;;;3.58;;
49396;SDS011;35615;41.410;2.194;2023-04-24T00:26:54;12.20;;;2.97;;
49396;SDS011;35615;41.410;2.194;2023-04-24T00:29:21;7.30;;;3.55;;
49396;SDS011;35615;41.410;2.194;2023-04-24T00:31:48;12.57;;;3.47;;
49396;SDS011;35615;41.410;2.194;2023-04-24T00:34:16;9.27;;;3.05;;
49396;SDS011;35615;41.410;2.194;2023-04-24T00:36:43;10.48;;;3.20;;
49396;SDS011;35615;41.410;2.194;2023-04-24T00:39:10;13.65;;;3.20;;
49396;SDS011;35615;41.410;2.194;2023-04-24T00:41:37;8.00;;;3.05;;
49396;SDS011;35615;41.410;2.194;2023-04-24T00:44:04;8.73;;;3.10;;
49396;SDS011;35615;41.410;2.194;2023-04-24T00:46:31;8.38;;;3.40;;
49396;SDS011;35615;41.410;2.194;2023-04-24T00:48:59;10.77;;;2.78;;
49396;SDS011;35615;41.410;2.194;2023-04-24T00:51:26;14.60;;;3.38;;
49396;SDS011;35615;41.410;2.194;2023-04-24T00:53:53;9.25;;;2.95;;
49396;SDS011;35615;41.410;2.194;2023-04-24T00:56:21;13.88;;;3.22;;
49396;SDS011;35615;41.410;2.194;2023-04-24T00:58:48;8.80;;;3.20;;
49396;SDS011;35615;41.410;2.194;2023-04-24T01:01:16;10.07;;;3.20;;
49396;SDS011;35615;41.410;2.194;2023-04-24T01:03:48;14.52;;;3.05;;
49396;SDS011;35615;41.410;2.194;2023-04-24T01:06:18;9.20;;;3.95;;
49396;SDS011;35615;41.410;2.194;2023-04-24T01:08:46;11.32;;;2.72;;
49396;SDS011;35615;41.410;2.194;2023-04-24T01:11:14;7.97;;;3.10;;
49396;SDS011;35615;41.410;2.194;2023-04-24T01:13:43;9.95;;;3.20;;
49396;SDS011;35615;41.410;2.194;2023-04-24T01:16:11;11.20;;;3.22;;
49396;SDS011;35615;41.410;2.194;2023-04-24T01:18:38;12.63;;;2.88;;
49396;SDS011;35615;41.410;2.194;2023-04-24T01:21:05;14.85;;;3.22;;
49396;SDS011;35615;41.410;2.194;2023-04-24T01:23:35;13.70;;;2.80;;
49396;SDS011;35615;41.410;2.194;2023-04-24T01:26:02;8.85;;;3.50;;
49396;SDS011;35615;41.410;2.194;2023-04-24T01:28:29;6.63;;;2.72;;
49396;SDS011;35615;41.410;2.194;2023-04-24T01:30:57;7.72;;;2.70;;
49396;SDS011;35615;41.410;2.194;2023-04-24T01:33:25;9.75;;;2.88;;
49396;SDS011;35615;41.410;2.194;2023-04-24T01:35:52;9.50;;;2.60;;
49396;SDS011;35615;41.410;2.194;2023-04-24T01:38:22;12.50;;;2.72;;
49396;SDS011;35615;41.410;2.194;2023-04-24T01:40:50;9.52;;;2.75;;
49396;SDS011;35615;41.410;2.194;2023-04-24T01:43:17;6.45;;;3.03;;
49396;SDS011;35615;41.410;2.194;2023-04-24T01:45:45;8.82;;;2.85;;
49396;SDS011;35615;41.410;2.194;2023-04-24T01:48:12;6.72;;;2.42;;
49396;SDS011;35615;41.410;2.194;2023-04-24T01:50:39;10.88;;;2.65;;
49396;SDS011;35615;41.410;2.194;2023-04-24T01:53:07;6.35;;;2.45;;
49396;SDS011;35615;41.410;2.194;2023-04-24T01:55:35;8.13;;;2.40;;
49396;SDS011;35615;41.410;2.194;2023-04-24T01:58:02;7.50;;;2.72;;
49396;SDS011;35615;41.410;2.194;2023-04-24T02:00:29;9.05;;;3.38;;
49396;SDS011;35615;41.410;2.194;2023-04-24T02:02:57;8.15;;;2.88;;
49396;SDS011;35615;41.410;2.194;2023-04-24T02:05:26;9.95;;;3.28;;
49396;SDS011;35615;41.410;2.194;2023-04-24T02:07:54;9.48;;;3.30;;
49396;SDS011;35615;41.410;2.194;2023-04-24T02:10:22;12.80;;;2.92;;
49396;SDS011;35615;41.410;2.194;2023-04-24T02:12:49;10.10;;;2.58;;
49396;SDS011;35615;41.410;2.194;2023-04-24T02:15:16;7.70;;;2.88;;
49396;SDS011;35615;41.410;2.194;2023-04-24T02:17:44;8.05;;;2.67;;
49396;SDS011;35615;41.410;2.194;2023-04-24T02:20:11;10.85;;;2.67;;
49396;SDS011;35615;41.410;2.194;2023-04-24T02:22:39;10.30;;;2.90;;
49396;SDS011;35615;41.410;2.194;2023-04-24T02:25:06;8.88;;;2.78;;
49396;SDS011;35615;41.410;2.194;2023-04-24T02:27:34;8.25;;;3.00;;
49396;SDS011;35615;41.410;2.194;2023-04-24T02:30:05;6.32;;;2.63;;
49396;SDS011;35615;41.410;2.194;2023-04-24T02:32:34;6.55;;;3.03;;
49396;SDS011;35615;41.410;2.194;2023-04-24T02:35:01;14.60;;;3.72;;
49396;SDS011;35615;41.410;2.194;2023-04-24T02:37:28;8.85;;;3.00;;
49396;SDS011;35615;41.410;2.194;2023-04-24T02:39:55;12.80;;;2.83;;
49396;SDS011;35615;41.410;2.194;2023-04-24T02:42:23;9.85;;;2.80;;
49396;SDS011;35615;41.410;2.194;2023-04-24T02:44:50;7.00;;;3.10;;
49396;SDS011;35615;41.410;2.194;2023-04-24T02:47:18;9.52;;;2.70;;
49396;SDS011;35615;41.410;2.194;2023-04-24T02:49:45;10.48;;;3.20;;
49396;SDS011;35615;41.410;2.194;2023-04-24T02:52:12;5.70;;;3.03;;
49396;SDS011;35615;41.410;2.194;2023-04-24T02:54:39;11.07;;;3.92;;
49396;SDS011;35615;41.410;2.194;2023-04-24T02:57:06;8.40;;;3.05;;
49396;SDS011;35615;41.410;2.194;2023-04-24T02:59:33;5.57;;;2.38;;
49396;SDS011;35615;41.410;2.194;2023-04-24T03:02:01;8.20;;;2.67;;
49396;SDS011;35615;41.410;2.194;2023-04-24T03:04:28;6.78;;;2.70;;
49396;SDS011;35615;41.410;2.194;2023-04-24T03:06:55;6.40;;;3.30;;
49396;SDS011;35615;41.410;2.194;2023-04-24T03:09:23;10.90;;;2.83;;
49396;SDS011;35615;41.410;2.194;2023-04-24T03:11:50;6.72;;;3.17;;
49396;SDS011;35615;41.410;2.194;2023-04-24T03:14:17;5.95;;;2.55;;
49396;SDS011;35615;41.410;2.194;2023-04-24T03:16:44;7.28;;;3.10;;
49396;SDS011;35615;41.410;2.194;2023-04-24T03:19:11;9.85;;;2.70;;
49396;SDS011;35615;41.410;2.194;2023-04-24T03:21:56;6.47;;;2.85;;
49396;SDS011;35615;41.410;2.194;2023-04-24T03:24:23;6.95;;;2.45;;
49396;SDS011;35615;41.410;2.194;2023-04-24T03:26:51;8.40;;;2.70;;
49396;SDS011;35615;41.410;2.194;2023-04-24T03:29:38;9.60;;;2.75;;
49396;SDS011;35615;41.410;2.194;2023-04-24T03:32:05;6.47;;;2.65;;
49396;SDS011;35615;41.410;2.194;2023-04-24T03:34:33;4.53;;;2.50;;
49396;SDS011;35615;41.410;2.194;2023-04-24T03:37:01;6.68;;;2.72;;
49396;SDS011;35615;41.410;2.194;2023-04-24T03:39:30;12.52;;;3.17;;
49396;SDS011;35615;41.410;2.194;2023-04-24T03:41:57;7.03;;;3.13;;
49396;SDS011;35615;41.410;2.194;2023-04-24T03:44:34;5.72;;;2.33;;
49396;SDS011;35615;41.410;2.194;2023-04-24T03:47:03;7.70;;;2.85;;
49396;SDS011;35615;41.410;2.194;2023-04-24T03:49:31;8.95;;;2.80;;
49396;SDS011;35615;41.410;2.194;2023-04-24T03:51:58;14.88;;;2.75;;
49396;SDS011;35615;41.410;2.194;2023-04-24T03:54:27;14.75;;;3.13;;
49396;SDS011;35615;41.410;2.194;2023-04-24T03:56:54;6.60;;;2.70;;
49396;SDS011;35615;41.410;2.194;2023-04-24T03:59:22;5.80;;;2.55;;
49396;SDS011;35615;41.410;2.194;2023-04-24T04:02:04;8.52;;;3.33;;
49396;SDS011;35615;41.410;2.194;2023-04-24T04:04:31;12.15;;;3.63;;
49396;SDS011;35615;41.410;2.194;2023-04-24T04:06:59;10.27;;;3.80;;
49396;SDS011;35615;41.410;2.194;2023-04-24T04:09:27;9.05;;;3.60;;
49396;SDS011;35615;41.410;2.194;2023-04-24T04:11:55;12.88;;;4.05;;
49396;SDS011;35615;41.410;2.194;2023-04-24T04:14:22;11.98;;;4.50;;
49396;SDS011;35615;41.410;2.194;2023-04-24T04:16:49;15.50;;;5.40;;
49396;SDS011;35615;41.410;2.194;2023-04-24T04:19:20;21.15;;;5.13;;
49396;SDS011;35615;41.410;2.194;2023-04-24T04:21:50;13.23;;;4.75;;
49396;SDS011;35615;41.410;2.194;2023-04-24T04:24:42;15.13;;;4.63;;
49396;SDS011;35615;41.410;2.194;2023-04-24T04:27:10;6.85;;;4.60;;
49396;SDS011;35615;41.410;2.194;2023-04-24T04:30:01;13.68;;;4.93;;
49396;SDS011;35615;41.410;2.194;2023-04-24T04:32:40;9.68;;;3.85;;
49396;SDS011;35615;41.410;2.194;2023-04-24T04:35:07;13.27;;;4.82;;
49396;SDS011;35615;41.410;2.194;2023-04-24T04:37:36;12.05;;;5.07;;
49396;SDS011;35615;41.410;2.194;2023-04-24T04:40:22;12.77;;;4.55;;
49396;SDS011;35615;41.410;2.194;2023-04-24T04:42:55;14.07;;;4.55;;
49396;SDS011;35615;41.410;2.194;2023-04-24T04:45:24;14.90;;;6.20;;
49396;SDS011;35615;41.410;2.194;2023-04-24T04:48:28;13.35;;;5.75;;
49396;SDS011;35615;41.410;2.194;2023-04-24T04:51:00;8.68;;;4.72;;
49396;SDS011;35615;41.410;2.194;2023-04-24T04:53:27;14.88;;;4.90;;
49396;SDS011;35615;41.410;2.194;2023-04-24T04:55:55;12.38;;;5.05;;
49396;SDS011;35615;41.410;2.194;2023-04-24T04:58:27;12.90;;;5.05;;
49396;SDS011;35615;41.410;2.194;2023-04-24T05:00:57;15.15;;;5.63;;
49396;SDS011;35615;41.410;2.194;2023-04-24T05:03:29;12.05;;;4.97;;
49396;SDS011;35615;41.410;2.194;2023-04-24T05:06:02;9.52;;;4.78;;
49396;SDS011;35615;41.410;2.194;2023-04-24T05:08:33;11.80;;;5.07;;
49396;SDS011;35615;41.410;2.194;2023-04-24T05:11:02;12.10;;;5.18;;
49396;SDS011;35615;41.410;2.194;2023-04-24T05:13:30;11.07;;;5.50;;
49396;SDS011;35615;41.410;2.194;2023-04-24T05:16:21;9.60;;;4.97;;
49396;SDS011;35615;41.410;2.194;2023-04-24T05:18:51;13.70;;;4.78;;
49396;SDS011;35615;41.410;2.194;2023-04-24T05:21:23;12.50;;;5.03;;
49396;SDS011;35615;41.410;2.194;2023-04-24T05:23:51;14.40;;;5.20;;
49396;SDS011;35615;41.410;2.194;2023-04-24T05:26:39;12.95;;;4.95;;
49396;SDS011;35615;41.410;2.194;2023-04-24T05:29:07;11.98;;;5.00;;
49396;SDS011;35615;41.410;2.194;2023-04-24T05:31:34;15.75;;;6.07;;
49396;SDS011;35615;41.410;2.194;2023-04-24T05:34:02;15.68;;;5.38;;
49396;SDS011;35615;41.410;2.194;2023-04-24T05:36:29;14.65;;;5.03;;
49396;SDS011;35615;41.410;2.194;2023-04-24T05:38:57;16.30;;;5.38;;
49396;SDS011;35615;41.410;2.194;2023-04-24T05:41:24;16.38;;;6.30;;
49396;SDS011;35615;41.410;2.194;2023-04-24T05:43:53;12.80;;;5.50;;
49396;SDS011;35615;41.410;2.194;2023-04-24T05:46:21;12.55;;;5.10;;
49396;SDS011;35615;41.410;2.194;2023-04-24T05:48:49;11.25;;;5.50;;
49396;SDS011;35615;41.410;2.194;2023-04-24T05:51:17;10.85;;;5.38;;
49396;SDS011;35615;41.410;2.194;2023-04-24T05:53:44;15.20;;;5.57;;
49396;SDS011;35615;41.410;2.194;2023-04-24T05:56:23;17.08;;;6.00;;
49396;SDS011;35615;41.410;2.194;2023-04-24T05:59:17;15.93;;;6.13;;
49396;SDS011;35615;41.410;2.194;2023-04-24T06:02:03;17.95;;;6.63;;
49396;SDS011;35615;41.410;2.194;2023-04-24T06:04:43;21.17;;;5.85;;
49396;SDS011;35615;41.410;2.194;2023-04-24T06:07:22;20.83;;;5.80;;
49396;SDS011;35615;41.410;2.194;2023-04-24T06:10:13;14.95;;;6.07;;
49396;SDS011;35615;41.410;2.194;2023-04-24T06:12:49;16.50;;;5.65;;
49396;SDS011;35615;41.410;2.194;2023-04-24T06:15:29;17.33;;;6.20;;
49396;SDS011;35615;41.410;2.194;2023-04-24T06:18:07;13.95;;;6.25;;
49396;SDS011;35615;41.410;2.194;2023-04-24T06:20:44;25.17;;;6.70;;
49396;SDS011;35615;41.410;2.194;2023-04-24T06:23:19;16.23;;;5.72;;
49396;SDS011;35615;41.410;2.194;2023-04-24T06:25:56;16.95;;;5.85;;
49396;SDS011;35615;41.410;2.194;2023-04-24T06:31:06;18.95;;;6.65;;
49396;SDS011;35615;41.410;2.194;2023-04-24T06:33:35;22.75;;;5.75;;
49396;SDS011;35615;41.410;2.194;2023-04-24T06:36:08;17.38;;;7.07;;
49396;SDS011;35615;41.410;2.194;2023-04-24T06:38:39;15.38;;;6.53;;
49396;SDS011;35615;41.410;2.194;2023-04-24T06:41:13;17.55;;;6.82;;
49396;SDS011;35615;41.410;2.194;2023-04-24T06:46:39;17.00;;;7.20;;
49396;SDS011;35615;41.410;2.194;2023-04-24T06:49:16;21.63;;;6.50;;
49396;SDS011;35615;41.410;2.194;2023-04-24T06:51:46;18.52;;;6.95;;
49396;SDS011;35615;41.410;2.194;2023-04-24T06:54:15;13.43;;;6.20;;
49396;SDS011;35615;41.410;2.194;2023-04-24T06:56:48;14.75;;;6.00;;
49396;SDS011;35615;41.410;2.194;2023-04-24T06:59:19;16.83;;;6.63;;
49396;SDS011;35615;41.410;2.194;2023-04-24T07:01:50;22.40;;;7.35;;
49396;SDS011;35615;41.410;2.194;2023-04-24T07:04:21;22.08;;;6.03;;
49396;SDS011;35615;41.410;2.194;2023-04-24T07:06:59;17.52;;;6.63;;
49396;SDS011;35615;41.410;2.194;2023-04-24T07:09:31;21.05;;;6.57;;
49396;SDS011;35615;41.410;2.194;2023-04-24T07:12:05;12.90;;;6.88;;
49396;SDS011;35615;41.410;2.194;2023-04-24T07:14:37;12.32;;;6.43;;
49396;SDS011;35615;41.410;2.194;2023-04-24T07:17:08;19.08;;;7.28;;
49396;SDS011;35615;41.410;2.194;2023-04-24T07:19:39;18.00;;;6.47;;
49396;SDS011;35615;41.410;2.194;2023-04-24T07:22:14;18.08;;;6.97;;
49396;SDS011;35615;41.410;2.194;2023-04-24T07:24:49;16.40;;;7.15;;
49396;SDS011;35615;41.410;2.194;2023-04-24T07:27:25;21.67;;;7.20;;
49396;SDS011;35615;41.410;2.194;2023-04-24T07:30:07;14.90;;;7.10;;
49396;SDS011;35615;41.410;2.194;2023-04-24T07:32:47;14.85;;;8.48;;
49396;SDS011;35615;41.410;2.194;2023-04-24T07:35:22;12.07;;;6.18;;
49396;SDS011;35615;41.410;2.194;2023-04-24T07:38:01;10.68;;;5.32;;
49396;SDS011;35615;41.410;2.194;2023-04-24T07:40:50;11.70;;;5.68;;
49396;SDS011;35615;41.410;2.194;2023-04-24T07:43:21;12.73;;;6.03;;
49396;SDS011;35615;41.410;2.194;2023-04-24T07:46:00;14.43;;;5.15;;
49396;SDS011;35615;41.410;2.194;2023-04-24T07:48:37;16.75;;;6.40;;
49396;SDS011;35615;41.410;2.194;2023-04-24T07:51:11;14.38;;;5.03;;
49396;SDS011;35615;41.410;2.194;2023-04-24T07:53:43;10.20;;;5.20;;
49396;SDS011;35615;41.410;2.194;2023-04-24T07:59:11;16.92;;;5.30;;
49396;SDS011;35615;41.410;2.194;2023-04-24T08:01:50;21.38;;;4.97;;
49396;SDS011;35615;41.410;2.194;2023-04-24T08:04:37;16.20;;;5.55;;
49396;SDS011;35615;41.410;2.194;2023-04-24T08:07:18;22.75;;;5.05;;
49396;SDS011;35615;41.410;2.194;2023-04-24T08:09:54;12.10;;;4.55;;
49396;SDS011;35615;41.410;2.194;2023-04-24T08:12:28;10.05;;;5.15;;
49396;SDS011;35615;41.410;2.194;2023-04-24T08:15:01;11.65;;;5.03;;
49396;SDS011;35615;41.410;2.194;2023-04-24T08:17:51;11.55;;;5.10;;
49396;SDS011;35615;41.410;2.194;2023-04-24T08:20:32;16.90;;;6.00;;
49396;SDS011;35615;41.410;2.194;2023-04-24T08:23:07;15.73;;;5.30;;
49396;SDS011;35615;41.410;2.194;2023-04-24T08:25:38;13.80;;;5.22;;
49396;SDS011;35615;41.410;2.194;2023-04-24T08:28:14;23.55;;;6.40;;
49396;SDS011;35615;41.410;2.194;2023-04-24T08:30:51;10.00;;;4.03;;
49396;SDS011;35615;41.410;2.194;2023-04-24T08:33:25;9.98;;;4.53;;
49396;SDS011;35615;41.410;2.194;2023-04-24T08:36:07;17.90;;;5.20;;
49396;SDS011;35615;41.410;2.194;2023-04-24T08:41:43;22.90;;;5.38;;
49396;SDS011;35615;41.410;2.194;2023-04-24T08:47:16;15.52;;;5.35;;
49396;SDS011;35615;41.410;2.194;2023-04-24T08:52:51;9.65;;;4.65;;
49396;SDS011;35615;41.410;2.194;2023-04-24T08:58:17;15.88;;;6.20;;
49396;SDS011;35615;41.410;2.194;2023-04-24T09:04:09;13.45;;;4.80;;
49396;SDS011;35615;41.410;2.194;2023-04-24T09:06:48;9.20;;;4.55;;
49396;SDS011;35615;41.410;2.194;2023-04-24T09:09:24;12.35;;;5.03;;
49396;SDS011;35615;41.410;2.194;2023-04-24T09:12:04;14.48;;;3.88;;
49396;SDS011;35615;41.410;2.194;2023-04-24T09:14:49;13.93;;;4.78;;
49396;SDS011;35615;41.410;2.194;2023-04-24T09:17:27;13.38;;;4.38;;
49396;SDS011;35615;41.410;2.194;2023-04-24T09:19:58;17.38;;;4.20;;
49396;SDS011;35615;41.410;2.194;2023-04-24T09:25:03;6.07;;;2.97;;
49396;SDS011;35615;41.410;2.194;2023-04-24T09:27:53;11.02;;;4.03;;
49396;SDS011;35615;41.410;2.194;2023-04-24T09:30:32;10.80;;;3.85;;
49396;SDS011;35615;41.410;2.194;2023-04-24T09:33:12;15.40;;;3.83;;
49396;SDS011;35615;41.410;2.194;2023-04-24T09:35:54;17.13;;;4.32;;
49396;SDS011;35615;41.410;2.194;2023-04-24T09:38:43;9.82;;;4.30;;
49396;SDS011;35615;41.410;2.194;2023-04-24T09:41:16;8.07;;;3.53;;
49396;SDS011;35615;41.410;2.194;2023-04-24T09:43:45;6.43;;;3.15;;
49396;SDS011;35615;41.410;2.194;2023-04-24T09:46:18;16.98;;;4.43;;
49396;SDS011;35615;41.410;2.194;2023-04-24T09:48:54;12.05;;;4.82;;
49396;SDS011;35615;41.410;2.194;2023-04-24T09:51:34;16.27;;;5.38;;
49396;SDS011;35615;41.410;2.194;2023-04-24T09:54:21;12.45;;;4.40;;
49396;SDS011;35615;41.410;2.194;2023-04-24T09:57:08;14.80;;;4.47;;
49396;SDS011;35615;41.410;2.194;2023-04-24T09:59:48;12.88;;;4.30;;
49396;SDS011;35615;41.410;2.194;2023-04-24T10:02:26;11.55;;;3.72;;
49396;SDS011;35615;41.410;2.194;2023-04-24T10:05:08;11.05;;;4.72;;
49396;SDS011;35615;41.410;2.194;2023-04-24T10:07:55;11.43;;;3.80;;
49396;SDS011;35615;41.410;2.194;2023-04-24T10:10:41;9.10;;;3.50;;
49396;SDS011;35615;41.410;2.194;2023-04-24T10:13:13;15.68;;;4.30;;
49396;SDS011;35615;41.410;2.194;2023-04-24T10:15:55;14.88;;;4.45;;
49396;SDS011;35615;41.410;2.194;2023-04-24T10:18:54;10.93;;;4.68;;
49396;SDS011;35615;41.410;2.194;2023-04-24T10:21:46;14.55;;;5.15;;
49396;SDS011;35615;41.410;2.194;2023-04-24T10:24:44;11.10;;;4.80;;
49396;SDS011;35615;41.410;2.194;2023-04-24T10:27:26;7.88;;;4.28;;
49396;SDS011;35615;41.410;2.194;2023-04-24T10:30:13;11.32;;;4.82;;
49396;SDS011;35615;41.410;2.194;2023-04-24T10:33:03;9.52;;;4.45;;
49396;SDS011;35615;41.410;2.194;2023-04-24T10:35:44;11.57;;;4.72;;
49396;SDS011;35615;41.410;2.194;2023-04-24T10:38:24;10.52;;;4.32;;
49396;SDS011;35615;41.410;2.194;2023-04-24T10:41:18;13.65;;;4.85;;
49396;SDS011;35615;41.410;2.194;2023-04-24T10:44:05;8.40;;;3.33;;
49396;SDS011;35615;41.410;2.194;2023-04-24T10:46:59;6.47;;;3.75;;
49396;SDS011;35615;41.410;2.194;2023-04-24T10:49:35;12.98;;;3.58;;
49396;SDS011;35615;41.410;2.194;2023-04-24T10:52:08;12.73;;;3.63;;
49396;SDS011;35615;41.410;2.194;2023-04-24T10:54:46;11.57;;;4.18;;
49396;SDS011;35615;41.410;2.194;2023-04-24T10:57:40;13.98;;;4.03;;
49396;SDS011;35615;41.410;2.194;2023-04-24T11:00:35;10.48;;;3.92;;
49396;SDS011;35615;41.410;2.194;2023-04-24T11:07:13;8.48;;;3.65;;
49396;SDS011;35615;41.410;2.194;2023-04-24T11:17:00;8.82;;;3.95;;
49396;SDS011;35615;41.410;2.194;2023-04-24T11:23:13;12.98;;;4.28;;
49396;SDS011;35615;41.410;2.194;2023-04-24T11:26:17;12.80;;;4.45;;
49396;SDS011;35615;41.410;2.194;2023-04-24T11:29:42;20.42;;;7.32;;
49396;SDS011;35615;41.410;2.194;2023-04-24T11:33:13;16.00;;;5.95;;
49396;SDS011;35615;41.410;2.194;2023-04-24T11:36:10;15.82;;;5.10;;
49396;SDS011;35615;41.410;2.194;2023-04-24T11:38:41;11.63;;;4.30;;
49396;SDS011;35615;41.410;2.194;2023-04-24T11:41:18;17.13;;;5.60;;
49396;SDS011;35615;41.410;2.194;2023-04-24T11:44:05;13.45;;;4.75;;
49396;SDS011;35615;41.410;2.194;2023-04-24T11:46:44;18.35;;;4.65;;
49396;SDS011;35615;41.410;2.194;2023-04-24T11:49:19;17.08;;;4.70;;
49396;SDS011;35615;41.410;2.194;2023-04-24T11:51:57;21.83;;;6.13;;
49396;SDS011;35615;41.410;2.194;2023-04-24T11:57:11;13.10;;;4.30;;
49396;SDS011;35615;41.410;2.194;2023-04-24T11:59:43;10.70;;;4.43;;
49396;SDS011;35615;41.410;2.194;2023-04-24T12:05:23;16.10;;;5.13;;
49396;SDS011;35615;41.410;2.194;2023-04-24T12:08:07;12.88;;;4.28;;
49396;SDS011;35615;41.410;2.194;2023-04-24T12:11:02;14.00;;;4.85;;
49396;SDS011;35615;41.410;2.194;2023-04-24T12:16:52;16.80;;;4.55;;
49396;SDS011;35615;41.410;2.194;2023-04-24T12:19:32;12.38;;;4.47;;
49396;SDS011;35615;41.410;2.194;2023-04-24T12:22:10;15.45;;;5.07;;
49396;SDS011;35615;41.410;2.194;2023-04-24T12:24:58;14.00;;;4.63;;
49396;SDS011;35615;41.410;2.194;2023-04-24T12:27:41;9.57;;;3.92;;
49396;SDS011;35615;41.410;2.194;2023-04-24T12:30:13;13.20;;;4.63;;
49396;SDS011;35615;41.410;2.194;2023-04-24T12:33:02;16.52;;;4.95;;
49396;SDS011;35615;41.410;2.194;2023-04-24T12:35:42;17.65;;;4.50;;
49396;SDS011;35615;41.410;2.194;2023-04-24T12:38:23;8.90;;;4.30;;
49396;SDS011;35615;41.410;2.194;2023-04-24T12:41:11;17.55;;;4.30;;
49396;SDS011;35615;41.410;2.194;2023-04-24T12:44:00;13.80;;;4.43;;
49396;SDS011;35615;41.410;2.194;2023-04-24T12:46:44;13.75;;;4.38;;
49396;SDS011;35615;41.410;2.194;2023-04-24T12:49:24;12.68;;;4.78;;
49396;SDS011;35615;41.410;2.194;2023-04-24T12:52:02;12.88;;;4.57;;
49396;SDS011;35615;41.410;2.194;2023-04-24T12:55:18;11.98;;;4.15;;
49396;SDS011;35615;41.410;2.194;2023-04-24T12:57:56;9.57;;;4.53;;
49396;SDS011;35615;41.410;2.194;2023-04-24T13:03:45;11.85;;;5.07;;
49396;SDS011;35615;41.410;2.194;2023-04-24T13:06:15;14.93;;;4.35;;
49396;SDS011;35615;41.410;2.194;2023-04-24T13:08:48;9.27;;;4.22;;
49396;SDS011;35615;41.410;2.194;2023-04-24T13:11:29;12.63;;;4.25;;
49396;SDS011;35615;41.410;2.194;2023-04-24T13:14:06;11.55;;;4.97;;
49396;SDS011;35615;41.410;2.194;2023-04-24T13:16:54;14.32;;;4.13;;
49396;SDS011;35615;41.410;2.194;2023-04-24T13:22:38;12.73;;;4.07;;
49396;SDS011;35615;41.410;2.194;2023-04-24T13:25:31;13.10;;;3.72;;
49396;SDS011;35615;41.410;2.194;2023-04-24T13:28:02;16.10;;;4.53;;
49396;SDS011;35615;41.410;2.194;2023-04-24T13:30:31;18.90;;;5.13;;
49396;SDS011;35615;41.410;2.194;2023-04-24T13:33:01;20.92;;;6.18;;
49396;SDS011;35615;41.410;2.194;2023-04-24T13:35:30;15.57;;;4.90;;
49396;SDS011;35615;41.410;2.194;2023-04-24T13:38:01;13.48;;;5.25;;
49396;SDS011;35615;41.410;2.194;2023-04-24T13:40:42;11.55;;;4.05;;
49396;SDS011;35615;41.410;2.194;2023-04-24T13:43:16;18.50;;;5.15;;
49396;SDS011;35615;41.410;2.194;2023-04-24T13:45:52;12.48;;;4.97;;
49396;SDS011;35615;41.410;2.194;2023-04-24T13:48:21;13.38;;;5.38;;
49396;SDS011;35615;41.410;2.194;2023-04-24T13:50:51;10.57;;;4.65;;
49396;SDS011;35615;41.410;2.194;2023-04-24T13:53:19;19.75;;;4.70;;
49396;SDS011;35615;41.410;2.194;2023-04-24T13:55:56;11.35;;;4.28;;
49396;SDS011;35615;41.410;2.194;2023-04-24T13:58:36;21.48;;;4.82;;
49396;SDS011;35615;41.410;2.194;2023-04-24T14:01:08;14.10;;;4.20;;
49396;SDS011;35615;41.410;2.194;2023-04-24T14:03:43;13.25;;;4.50;;
49396;SDS011;35615;41.410;2.194;2023-04-24T14:06:11;12.98;;;5.07;;
49396;SDS011;35615;41.410;2.194;2023-04-24T14:08:39;14.32;;;4.65;;
49396;SDS011;35615;41.410;2.194;2023-04-24T14:11:13;13.68;;;5.65;;
49396;SDS011;35615;41.410;2.194;2023-04-24T14:13:47;16.73;;;5.25;;
49396;SDS011;35615;41.410;2.194;2023-04-24T14:16:26;13.80;;;4.43;;
49396;SDS011;35615;41.410;2.194;2023-04-24T14:19:06;11.88;;;5.22;;
49396;SDS011;35615;41.410;2.194;2023-04-24T14:21:38;14.45;;;5.40;;
49396;SDS011;35615;41.410;2.194;2023-04-24T14:24:09;17.08;;;4.97;;
49396;SDS011;35615;41.410;2.194;2023-04-24T14:26:38;21.77;;;6.40;;
49396;SDS011;35615;41.410;2.194;2023-04-24T14:29:11;17.23;;;5.10;;
49396;SDS011;35615;41.410;2.194;2023-04-24T14:31:56;15.13;;;5.22;;
49396;SDS011;35615;41.410;2.194;2023-04-24T14:34:31;18.38;;;5.97;;
49396;SDS011;35615;41.410;2.194;2023-04-24T14:37:01;13.73;;;5.07;;
49396;SDS011;35615;41.410;2.194;2023-04-24T14:39:32;22.15;;;6.57;;
49396;SDS011;35615;41.410;2.194;2023-04-24T14:41:59;18.08;;;5.28;;
49396;SDS011;35615;41.410;2.194;2023-04-24T14:44:34;13.45;;;4.75;;
49396;SDS011;35615;41.410;2.194;2023-04-24T14:47:04;22.08;;;5.75;;
49396;SDS011;35615;41.410;2.194;2023-04-24T14:49:38;13.70;;;5.15;;
49396;SDS011;35615;41.410;2.194;2023-04-24T14:52:08;14.10;;;5.82;;
49396;SDS011;35615;41.410;2.194;2023-04-24T14:54:44;14.00;;;5.60;;
49396;SDS011;35615;41.410;2.194;2023-04-24T14:59:45;11.63;;;5.43;;
49396;SDS011;35615;41.410;2.194;2023-04-24T15:02:12;16.30;;;5.07;;
49396;SDS011;35615;41.410;2.194;2023-04-24T15:04:42;18.38;;;5.65;;
49396;SDS011;35615;41.410;2.194;2023-04-24T15:07:10;15.25;;;5.35;;
49396;SDS011;35615;41.410;2.194;2023-04-24T15:09:42;17.15;;;4.88;;
49396;SDS011;35615;41.410;2.194;2023-04-24T15:12:09;25.25;;;6.68;;
49396;SDS011;35615;41.410;2.194;2023-04-24T15:14:42;24.20;;;5.40;;
49396;SDS011;35615;41.410;2.194;2023-04-24T15:17:09;14.55;;;4.78;;
49396;SDS011;35615;41.410;2.194;2023-04-24T15:19:40;17.17;;;5.47;;
49396;SDS011;35615;41.410;2.194;2023-04-24T15:22:10;19.92;;;5.63;;
49396;SDS011;35615;41.410;2.194;2023-04-24T15:24:41;15.57;;;5.43;;
49396;SDS011;35615;41.410;2.194;2023-04-24T15:27:11;22.98;;;6.28;;
49396;SDS011;35615;41.410;2.194;2023-04-24T15:29:42;15.68;;;5.15;;
49396;SDS011;35615;41.410;2.194;2023-04-24T15:32:17;12.13;;;5.30;;
49396;SDS011;35615;41.410;2.194;2023-04-24T15:34:48;20.83;;;5.00;;
49396;SDS011;35615;41.410;2.194;2023-04-24T15:37:30;11.32;;;4.78;;
49396;SDS011;35615;41.410;2.194;2023-04-24T15:39:57;16.77;;;5.40;;
49396;SDS011;35615;41.410;2.194;2023-04-24T15:42:30;13.15;;;4.60;;
49396;SDS011;35615;41.410;2.194;2023-04-24T15:44:58;15.23;;;4.90;;
49396;SDS011;35615;41.410;2.194;2023-04-24T15:47:25;15.85;;;5.63;;
49396;SDS011;35615;41.410;2.194;2023-04-24T15:50:03;19.27;;;5.53;;
49396;SDS011;35615;41.410;2.194;2023-04-24T15:52:31;14.35;;;5.85;;
49396;SDS011;35615;41.410;2.194;2023-04-24T15:54:58;15.48;;;5.22;;
49396;SDS011;35615;41.410;2.194;2023-04-24T15:57:28;15.70;;;5.22;;
49396;SDS011;35615;41.410;2.194;2023-04-24T15:59:56;17.70;;;4.32;;
49396;SDS011;35615;41.410;2.194;2023-04-24T16:02:26;12.55;;;4.20;;
49396;SDS011;35615;41.410;2.194;2023-04-24T16:04:56;15.70;;;5.18;;
49396;SDS011;35615;41.410;2.194;2023-04-24T16:07:25;13.07;;;5.03;;
49396;SDS011;35615;41.410;2.194;2023-04-24T16:09:55;17.65;;;5.53;;
49396;SDS011;35615;41.410;2.194;2023-04-24T16:12:30;15.68;;;5.15;;
49396;SDS011;35615;41.410;2.194;2023-04-24T16:15:05;11.90;;;5.45;;
49396;SDS011;35615;41.410;2.194;2023-04-24T16:17:35;12.73;;;4.97;;
49396;SDS011;35615;41.410;2.194;2023-04-24T16:20:05;15.60;;;5.80;;